McIntyre, Pennsylvania
Current Conditions -  °F | °C
As of 3:15 PM on Saturday 25 Oct 2014 (Local Time) from KIDI Reporting Station
Overcast Overcast  
Wind Chill: 63°   Ceiling: 4400
Heat Index: 63°   Visibility: 10mi
Dew Point: 50°   Wind: 16mph
Humidity: 63%   Direction: 270°W
Pressure: 29.82"   Gusts: NA
Location:  40.57°N, 79.3°W
Report Text: KIDI 251915Z AUTO 27014KT 10SM FEW037 OVC044 17/10 A2982 RMK A01
Loading
Personal Weather Stations






























Interactive Weather Map
Tropical Storm Tracking
New forecast layout! Learn more

10-Day Weather Forecast

Advertisements
Track Severe Weather on mobile